Time;durP1;ratioP1;P1;durP2;ratioP2;P2;SDS_P1;SDS_P2;PMS_P1;PMS_P2;Temp;Humidity;BMP_temperature;BMP_pressure;BME280_temperature;BME280_humidity;BME280_pressure;Samples;Min_cycle;Max_cycle;Signal;HPM_P1;HPM_P2
2023/05/22 00:01:31;;;;;;;5.00;4.13;;;14.50;1.00;;;;;;4957299;29;20229;-95
2023/05/22 00:03:58;;;;;;;5.03;4.00;;;14.50;1.00;;;;;;4958185;29;20290;-96
2023/05/22 00:06:26;;;;;;;5.73;4.13;;;14.60;1.00;;;;;;4957530;28;20203;-96
2023/05/22 00:08:54;;;;;;;5.10;4.07;;;14.60;1.00;;;;;;4957449;28;20261;-95
2023/05/22 00:11:21;;;;;;;6.00;4.90;;;14.60;1.00;;;;;;4956662;28;20210;-96
2023/05/22 00:13:48;;;;;;;4.77;4.07;;;14.70;1.00;;;;;;4957119;29;20199;-96
2023/05/22 00:16:15;;;;;;;8.07;3.80;;;14.70;1.00;;;;;;4956869;28;20202;-96
2023/05/22 00:18:43;;;;;;;5.93;4.37;;;14.70;1.00;;;;;;4956768;29;20353;-95
2023/05/22 00:21:10;;;;;;;6.27;3.93;;;14.70;1.00;;;;;;4956175;29;20219;-96
2023/05/22 00:23:37;;;;;;;6.43;3.97;;;14.70;1.00;;;;;;4956380;29;20211;-96
2023/05/22 00:26:05;;;;;;;6.00;4.30;;;14.70;1.00;;;;;;4957151;29;20202;-96
2023/05/22 00:28:32;;;;;;;9.83;4.10;;;14.70;1.00;;;;;;4956454;28;20286;-96
2023/05/22 00:30:58;;;;;;;6.57;4.00;;;14.70;1.00;;;;;;4957190;29;20210;-95
2023/05/22 00:33:25;;;;;;;8.90;4.17;;;14.70;1.00;;;;;;4956559;29;20208;-95
2023/05/22 00:35:52;;;;;;;8.17;3.77;;;14.70;1.00;;;;;;4956335;28;20208;-95
2023/05/22 00:38:29;;;;;;;6.17;4.13;;;14.70;1.00;;;;;;4959974;29;20210;-96
2023/05/22 00:40:56;;;;;;;5.90;4.43;;;14.70;1.00;;;;;;4964145;29;20216;-96
2023/05/22 00:43:25;;;;;;;4.93;4.20;;;14.80;1.00;;;;;;4962964;29;20263;-96
2023/05/22 00:45:52;;;;;;;6.40;4.30;;;14.80;1.00;;;;;;4964130;29;20210;-95
2023/05/22 00:48:20;;;;;;;7.20;3.90;;;14.80;1.00;;;;;;4961571;29;20308;-96
2023/05/22 00:50:46;;;;;;;5.97;3.77;;;14.80;1.00;;;;;;4959041;29;20232;-96
2023/05/22 00:53:14;;;;;;;5.43;4.00;;;14.90;1.00;;;;;;4956710;29;20203;-96
2023/05/22 00:55:41;;;;;;;6.80;3.97;;;14.80;1.00;;;;;;4956901;29;20608;-96
2023/05/22 00:58:10;;;;;;;8.30;4.10;;;14.80;1.00;;;;;;4957123;28;20199;-95
2023/05/22 01:00:40;;;;;;;5.30;4.07;;;14.80;1.00;;;;;;4960748;29;20566;-95
2023/05/22 01:03:08;;;;;;;5.87;3.80;;;14.80;1.00;;;;;;4961892;28;20231;-96
2023/05/22 01:05:35;;;;;;;7.03;4.17;;;14.70;1.00;;;;;;4961899;29;20230;-96
2023/05/22 01:08:03;;;;;;;7.60;4.20;;;14.70;1.00;;;;;;4962112;28;20243;-96
2023/05/22 01:10:31;;;;;;;9.93;3.83;;;14.70;1.00;;;;;;4961601;29;20235;-96
2023/05/22 01:13:04;;;;;;;8.93;3.93;;;14.70;1.00;;;;;;4960265;29;20206;-95
2023/05/22 01:15:39;;;;;;;5.00;4.27;;;14.70;1.00;;;;;;4959782;29;20290;-95
2023/05/22 01:18:18;;;;;;;6.37;4.27;;;14.70;1.00;;;;;;4961353;29;20218;-95
2023/05/22 01:20:52;;;;;;;5.93;4.40;;;14.70;1.00;;;;;;4962062;29;20228;-96
2023/05/22 01:23:53;;;;;;;4.67;3.80;;;14.70;1.00;;;;;;4960634;29;20255;-96
2023/05/22 01:26:40;;;;;;;5.33;4.20;;;14.60;1.00;;;;;;4959519;28;20238;-95
2023/05/22 01:29:26;;;;;;;5.47;4.47;;;14.50;1.00;;;;;;4956350;29;20193;-95
2023/05/22 01:31:57;;;;;;;8.90;4.47;;;14.50;1.00;;;;;;4960570;28;20223;-95
2023/05/22 01:34:25;;;;;;;7.20;4.43;;;14.40;1.00;;;;;;4962240;28;20217;-96
2023/05/22 01:36:53;;;;;;;9.80;4.33;;;14.40;1.00;;;;;;4963319;29;20290;-95
2023/05/22 01:39:20;;;;;;;5.37;4.13;;;14.30;1.00;;;;;;4960268;29;20202;-95
2023/05/22 01:41:47;;;;;;;6.77;4.60;;;14.30;1.00;;;;;;4959488;28;20221;-95
2023/05/22 01:44:14;;;;;;;6.40;4.13;;;14.30;1.00;;;;;;4942516;28;20283;-96
2023/05/22 01:46:41;;;;;;;8.30;4.40;;;14.20;1.00;;;;;;4959899;29;20196;-95
2023/05/22 01:49:09;;;;;;;6.10;4.80;;;14.10;1.00;;;;;;4959063;29;20196;-96
2023/05/22 01:51:45;;;;;;;5.60;4.30;;;14.10;1.00;;;;;;4960410;29;20226;-95
2023/05/22 01:54:17;;;;;;;7.13;4.60;;;14.00;1.00;;;;;;4960527;29;20194;-95
2023/05/22 01:56:50;;;;;;;6.20;4.40;;;13.90;1.00;;;;;;4960397;29;20665;-95
2023/05/22 01:59:24;;;;;;;7.60;4.50;;;13.80;1.00;;;;;;4959182;29;20675;-96
2023/05/22 02:01:52;;;;;;;10.80;5.40;;;13.80;1.00;;;;;;4958915;29;20219;-96
2023/05/22 02:04:22;;;;;;;6.13;4.53;;;13.80;1.00;;;;;;4959862;28;20671;-95
2023/05/22 02:06:52;;;;;;;6.33;4.50;;;13.80;1.00;;;;;;4960127;28;20204;-95
2023/05/22 02:09:23;;;;;;;8.07;4.87;;;13.80;1.00;;;;;;4974015;28;20240;-96
2023/05/22 02:11:51;;;;;;;11.03;4.47;;;13.80;1.00;;;;;;4978567;28;20198;-95
2023/05/22 02:14:18;;;;;;;8.37;4.47;;;13.80;1.00;;;;;;4977157;28;20285;-96
2023/05/22 02:16:46;;;;;;;6.37;4.70;;;13.90;1.00;;;;;;4974332;28;20293;-96
2023/05/22 02:19:14;;;;;;;6.90;4.70;;;13.90;1.00;;;;;;4960941;28;20648;-96
2023/05/22 02:21:42;;;;;;;7.33;4.53;;;13.90;1.00;;;;;;4959204;29;20650;-96
2023/05/22 02:24:09;;;;;;;6.40;4.30;;;13.90;1.00;;;;;;4958429;29;20203;-95
2023/05/22 02:26:36;;;;;;;7.93;4.40;;;13.90;1.00;;;;;;4958227;29;20202;-95
2023/05/22 02:29:04;;;;;;;6.53;4.57;;;13.90;1.00;;;;;;4957778;28;20202;-95
2023/05/22 02:31:30;;;;;;;7.93;4.60;;;13.90;1.00;;;;;;4959529;29;20668;-95
2023/05/22 02:33:57;;;;;;;5.43;4.30;;;13.90;1.00;;;;;;4960935;29;20283;-95
2023/05/22 02:36:26;;;;;;;8.77;5.00;;;13.90;1.00;;;;;;4967337;28;20208;-96
2023/05/22 02:38:55;;;;;;;7.50;4.83;;;13.90;1.00;;;;;;4986330;28;20265;-96
2023/05/22 02:41:22;;;;;;;8.67;4.57;;;13.80;1.00;;;;;;4980790;28;20207;-96
2023/05/22 02:43:49;;;;;;;7.67;4.70;;;13.80;15.00;;;;;;4980536;28;20626;-96
2023/05/22 02:46:16;;;;;;;6.93;4.83;;;13.80;18.10;;;;;;4971929;28;20215;-96
2023/05/22 02:48:44;;;;;;;8.00;5.00;;;13.80;28.90;;;;;;4976146;29;20210;-96
2023/05/22 02:51:11;;;;;;;6.17;4.50;;;13.80;59.20;;;;;;4971005;29;20199;-96
2023/05/22 02:53:39;;;;;;;9.63;4.60;;;13.80;66.00;;;;;;4970401;28;20207;-95
2023/05/22 02:56:09;;;;;;;6.40;5.07;;;13.80;92.40;;;;;;4961544;28;20203;-95
2023/05/22 02:58:36;;;;;;;6.37;4.90;;;13.80;85.40;;;;;;4966825;28;20196;-96
2023/05/22 03:01:05;;;;;;;6.77;4.90;;;13.90;91.80;;;;;;4974024;28;20753;-96
2023/05/22 03:03:32;;;;;;;6.73;4.80;;;13.90;93.80;;;;;;4975245;28;20214;-96
2023/05/22 03:06:00;;;;;;;12.10;4.80;;;14.00;87.70;;;;;;4965583;29;20202;-96
2023/05/22 03:08:28;;;;;;;6.80;4.83;;;13.90;99.90;;;;;;4965380;28;20226;-96
2023/05/22 03:10:55;;;;;;;9.23;4.50;;;13.90;95.70;;;;;;4968008;29;20212;-95
2023/05/22 03:13:24;;;;;;;9.43;5.63;;;13.90;99.90;;;;;;4968435;29;20195;-96
2023/05/22 03:15:51;;;;;;;7.57;5.23;;;14.00;99.90;;;;;;4971435;28;20191;-96
2023/05/22 03:18:21;;;;;;;5.87;4.83;;;14.00;99.90;;;;;;4968877;29;20274;-96
2023/05/22 03:20:49;;;;;;;5.87;5.07;;;14.10;99.90;;;;;;4969162;28;20192;-96
2023/05/22 03:23:16;;;;;;;7.43;5.03;;;14.20;99.90;;;;;;4969543;29;20244;-96
2023/05/22 03:25:43;;;;;;;8.93;4.97;;;14.20;97.50;;;;;;4971857;29;20211;-96
2023/05/22 03:28:10;;;;;;;10.67;4.93;;;14.30;99.90;;;;;;4973656;29;20206;-95
2023/05/22 03:30:39;;;;;;;11.70;5.00;;;14.40;87.00;;;;;;4959123;29;20349;-95
2023/05/22 03:33:05;;;;;;;6.37;5.20;;;14.50;47.80;;;;;;4956809;28;20627;-94
2023/05/22 03:35:32;;;;;;;6.43;4.90;;;14.60;15.00;;;;;;4956360;29;20263;-96
2023/05/22 03:37:59;;;;;;;13.00;5.03;;;14.70;1.00;;;;;;4956681;29;20208;-95
2023/05/22 03:40:26;;;;;;;6.40;4.90;;;14.80;1.00;;;;;;4956454;29;20203;-95
2023/05/22 03:42:53;;;;;;;6.97;4.83;;;14.90;1.00;;;;;;4956039;29;20870;-95
2023/05/22 03:45:19;;;;;;;7.13;4.80;;;14.90;1.00;;;;;;4956653;28;20575;-95
2023/05/22 03:47:48;;;;;;;7.75;4.85;;;15.00;1.00;;;;;;4956667;29;20193;-96
2023/05/22 03:50:14;;;;;;;8.07;5.13;;;15.10;1.00;;;;;;4959258;29;20214;-95
2023/05/22 03:52:41;;;;;;;9.77;4.80;;;15.20;1.00;;;;;;4956719;28;20573;-95
2023/05/22 03:55:09;;;;;;;6.60;4.77;;;15.30;1.00;;;;;;4956328;28;20201;-95
2023/05/22 03:57:36;;;;;;;10.05;5.18;;;15.50;1.00;;;;;;4955750;28;20241;-94
2023/05/22 04:00:08;;;;;;;8.25;4.75;;;15.70;1.00;;;;;;4956501;28;20193;-96
2023/05/22 04:02:37;;;;;;;7.28;4.85;;;15.90;1.00;;;;;;4956340;29;20225;-95
2023/05/22 04:05:06;;;;;;;7.30;5.10;;;16.10;1.00;;;;;;4956816;29;20265;-94
2023/05/22 04:07:33;;;;;;;7.88;4.93;;;16.30;1.00;;;;;;4955580;29;20242;-94
2023/05/22 04:10:00;;;;;;;8.23;4.60;;;16.60;1.00;;;;;;4956024;29;20196;-95
2023/05/22 04:12:27;;;;;;;6.50;4.90;;;16.90;1.00;;;;;;4955901;29;20207;-94
2023/05/22 04:14:53;;;;;;;6.28;4.80;;;17.30;1.00;;;;;;4955924;29;20687;-95
2023/05/22 04:17:20;;;;;;;7.75;4.80;;;17.60;1.00;;;;;;4955939;29;20556;-95
2023/05/22 04:19:47;;;;;;;7.60;4.60;;;17.90;1.00;;;;;;4955895;29;20200;-95
2023/05/22 04:22:16;;;;;;;6.35;4.90;;;18.10;1.00;;;;;;4955895;29;20224;-95
2023/05/22 04:24:43;;;;;;;7.80;4.70;;;18.30;1.00;;;;;;4955944;29;20275;-95
2023/05/22 04:27:10;;;;;;;5.80;4.65;;;18.60;1.00;;;;;;4956070;29;20201;-94
2023/05/22 04:29:36;;;;;;;11.40;5.00;;;18.80;1.00;;;;;;4955924;28;20288;-94
2023/05/22 04:32:05;;;;;;;9.82;4.93;;;18.90;99.90;;;;;;4955915;29;20585;-95
2023/05/22 04:34:32;;;;;;;6.13;4.90;;;19.00;99.90;;;;;;4958716;28;20200;-93
2023/05/22 04:36:59;;;;;;;5.78;4.82;;;19.10;99.90;;;;;;4959681;29;20192;-95
2023/05/22 04:39:27;;;;;;;5.95;4.75;;;19.10;99.90;;;;;;4959484;28;20203;-95
2023/05/22 04:41:54;;;;;;;5.97;4.80;;;19.10;99.90;;;;;;4959022;28;20199;-95
2023/05/22 04:44:22;;;;;;;6.47;5.18;;;19.30;99.90;;;;;;4959612;28;20203;-94
2023/05/22 04:46:49;;;;;;;9.32;4.82;;;19.50;99.90;;;;;;4959675;29;20247;-95
2023/05/22 04:49:16;;;;;;;6.68;5.05;;;19.70;99.90;;;;;;4959268;29;20211;-94
2023/05/22 04:51:43;;;;;;;7.78;5.38;;;19.70;99.90;;;;;;4959301;28;20202;-94
2023/05/22 04:54:09;;;;;;;6.30;4.85;;;19.70;99.90;;;;;;4958776;28;20191;-94
2023/05/22 04:56:38;;;;;;;7.50;4.85;;;19.60;99.90;;;;;;4957856;29;20260;-95
2023/05/22 04:59:07;;;;;;;9.30;4.82;;;19.50;99.90;;;;;;4959383;29;20188;-94
2023/05/22 05:01:34;;;;;;;7.75;5.38;;;19.40;99.90;;;;;;4940655;29;20209;-93
2023/05/22 05:04:02;;;;;;;7.75;4.80;;;19.30;99.90;;;;;;4953143;29;20212;-92
2023/05/22 05:06:29;;;;;;;6.57;5.25;;;19.20;99.90;;;;;;4958931;29;20200;-92
2023/05/22 05:08:55;;;;;;;6.47;5.20;;;19.10;99.90;;;;;;4958308;28;20228;-93
2023/05/22 05:11:22;;;;;;;7.20;5.20;;;19.10;99.90;;;;;;4957241;29;20661;-93
2023/05/22 05:13:51;;;;;;;7.20;5.32;;;19.00;99.90;;;;;;4958179;29;20235;-94
2023/05/22 05:16:18;;;;;;;8.27;5.05;;;18.90;99.90;;;;;;4957728;29;20201;-93
2023/05/22 05:18:45;;;;;;;5.65;4.82;;;18.90;99.90;;;;;;4957860;29;20555;-93
2023/05/22 05:21:11;;;;;;;7.15;5.00;;;18.90;99.90;;;;;;4960125;28;20200;-94
2023/05/22 05:23:38;;;;;;;8.48;4.88;;;18.90;99.90;;;;;;4959778;29;20220;-95
2023/05/22 05:26:06;;;;;;;7.07;5.07;;;18.90;99.90;;;;;;4967143;29;20211;-95
2023/05/22 05:28:32;;;;;;;5.80;4.72;;;19.00;99.90;;;;;;4965115;28;20645;-95
2023/05/22 05:31:01;;;;;;;10.40;4.97;;;19.10;99.90;;;;;;4965991;29;20232;-96
2023/05/22 05:33:28;;;;;;;6.70;4.93;;;19.20;99.90;;;;;;4966348;29;20199;-95
2023/05/22 05:35:55;;;;;;;8.45;4.93;;;19.30;99.90;;;;;;4967920;28;20259;-95
2023/05/22 05:38:22;;;;;;;7.90;4.75;;;19.40;99.90;;;;;;4964717;28;20200;-95
2023/05/22 05:40:49;;;;;;;6.95;4.82;;;19.40;99.90;;;;;;4964872;29;20285;-95
2023/05/22 05:43:16;;;;;;;8.43;4.88;;;19.40;99.90;;;;;;4966275;29;20248;-95
2023/05/22 05:45:43;;;;;;;7.57;4.97;;;19.50;99.90;;;;;;4963425;28;20283;-94
2023/05/22 05:48:11;;;;;;;5.80;4.80;;;19.60;99.90;;;;;;4966040;29;20195;-95
2023/05/22 05:50:38;;;;;;;5.78;4.70;;;19.70;99.90;;;;;;4966067;29;20200;-95
2023/05/22 05:53:05;;;;;;;5.63;4.60;;;19.80;99.90;;;;;;4966554;29;20196;-96
2023/05/22 05:55:32;;;;;;;6.95;4.55;;;19.90;99.90;;;;;;4964729;28;20192;-95
2023/05/22 05:57:59;;;;;;;6.10;4.20;;;20.00;99.90;;;;;;4965608;29;20291;-95
2023/05/22 06:00:26;;;;;;;6.13;4.28;;;20.00;99.90;;;;;;4964245;28;20196;-96
2023/05/22 06:02:53;;;;;;;6.63;4.30;;;20.00;99.90;;;;;;4965221;28;20267;-96
2023/05/22 06:05:22;;;;;;;8.02;4.38;;;20.00;99.90;;;;;;4965076;29;20200;-95
2023/05/22 06:07:49;;;;;;;4.93;4.35;;;20.00;99.90;;;;;;4928958;28;1336797;-95
2023/05/22 06:10:16;;;;;;;7.68;4.38;;;20.10;99.90;;;;;;4972302;28;20201;-95
2023/05/22 06:12:43;;;;;;;5.63;4.50;;;20.20;99.90;;;;;;4968783;28;20736;-96
2023/05/22 06:15:11;;;;;;;8.73;4.63;;;20.20;99.90;;;;;;4972991;28;20215;-96
2023/05/22 06:17:39;;;;;;;5.22;4.30;;;20.30;99.90;;;;;;4968074;29;20238;-96
2023/05/22 06:20:07;;;;;;;5.63;4.40;;;20.40;99.90;;;;;;4969342;29;20624;-95
2023/05/22 06:22:36;;;;;;;6.30;4.40;;;20.60;99.90;;;;;;4967276;29;20255;-95
2023/05/22 06:25:03;;;;;;;6.82;4.22;;;20.70;99.90;;;;;;4965604;28;20740;-95
2023/05/22 06:27:30;;;;;;;5.07;3.80;;;20.80;99.90;;;;;;4964231;29;20267;-96
2023/05/22 06:29:59;;;;;;;6.07;4.18;;;20.90;99.90;;;;;;4964743;29;20201;-96
2023/05/22 06:32:26;;;;;;;6.38;4.40;;;21.10;99.90;;;;;;4965169;29;20204;-96
2023/05/22 06:34:53;;;;;;;6.25;4.00;;;21.20;99.90;;;;;;4982271;28;20278;-95
2023/05/22 06:37:20;;;;;;;7.57;4.20;;;21.40;99.90;;;;;;4965365;28;20673;-95
2023/05/22 06:39:48;;;;;;;4.97;4.15;;;21.50;99.90;;;;;;4963494;29;20204;-96
2023/05/22 06:42:15;;;;;;;5.97;4.30;;;21.70;99.90;;;;;;4968702;28;20195;-95
2023/05/22 06:44:42;;;;;;;6.50;4.43;;;21.80;99.90;;;;;;4978494;28;20220;-96
2023/05/22 06:47:09;;;;;;;4.60;4.00;;;21.90;99.90;;;;;;4962119;28;20279;-95
2023/05/22 06:49:35;;;;;;;6.32;4.28;;;22.00;99.90;;;;;;4960401;28;20212;-96
2023/05/22 06:52:02;;;;;;;7.88;4.05;;;22.10;99.90;;;;;;4960559;29;20198;-95
2023/05/22 06:54:29;;;;;;;7.07;3.85;;;22.20;99.90;;;;;;4967510;28;20200;-96
2023/05/22 06:56:58;;;;;;;5.07;3.70;;;22.30;99.90;;;;;;4974565;28;20196;-95
2023/05/22 06:59:25;;;;;;;5.30;3.35;;;22.30;99.90;;;;;;4958791;29;20193;-96
2023/05/22 07:01:52;;;;;;;8.65;3.72;;;22.40;99.90;;;;;;4961051;28;20232;-95
2023/05/22 07:04:19;;;;;;;4.53;3.35;;;22.60;99.90;;;;;;4960184;29;20299;-95
2023/05/22 07:06:47;;;;;;;7.82;3.40;;;22.70;99.90;;;;;;4959388;28;20203;-95
2023/05/22 07:09:14;;;;;;;8.70;3.75;;;22.80;99.90;;;;;;4960147;29;20307;-95
2023/05/22 07:11:42;;;;;;;4.13;3.40;;;22.90;99.90;;;;;;4959022;28;20219;-96
2023/05/22 07:14:11;;;;;;;4.88;3.53;;;23.00;99.90;;;;;;4961801;28;20252;-94
2023/05/22 07:16:39;;;;;;;4.55;3.80;;;23.00;99.90;;;;;;4940449;29;20209;-95
2023/05/22 07:19:07;;;;;;;4.55;3.50;;;23.00;99.90;;;;;;4957940;29;20242;-94
2023/05/22 07:21:34;;;;;;;5.97;3.40;;;23.10;99.90;;;;;;4959042;29;20193;-95
2023/05/22 07:24:06;;;;;;;4.53;3.38;;;23.10;99.90;;;;;;4958731;29;20215;-95
2023/05/22 07:26:34;;;;;;;3.95;3.28;;;23.20;99.90;;;;;;4959491;29;20208;-95
2023/05/22 07:29:00;;;;;;;3.90;3.17;;;23.30;99.90;;;;;;4960929;29;20552;-96
2023/05/22 07:31:29;;;;;;;6.00;3.30;;;23.30;99.90;;;;;;4959115;29;20278;-95
2023/05/22 07:33:56;;;;;;;3.55;3.22;;;23.30;99.90;;;;;;4958650;28;20196;-95
2023/05/22 07:36:23;;;;;;;4.90;3.08;;;23.30;99.90;;;;;;4959668;29;20199;-96
2023/05/22 07:38:50;;;;;;;6.05;3.10;;;23.40;99.90;;;;;;4959977;29;20284;-96
2023/05/22 07:41:17;;;;;;;4.63;3.10;;;23.50;99.90;;;;;;4958435;29;20202;-95
2023/05/22 07:43:44;;;;;;;5.53;2.90;;;23.40;99.90;;;;;;4958150;29;20306;-95
2023/05/22 07:46:11;;;;;;;4.40;2.90;;;23.30;99.90;;;;;;4957777;28;20204;-96
2023/05/22 07:48:40;;;;;;;4.32;3.40;;;23.30;99.90;;;;;;4958927;29;20278;-95
2023/05/22 07:51:07;;;;;;;5.05;3.20;;;23.20;99.90;;;;;;4958138;28;20235;-95
2023/05/22 07:53:34;;;;;;;4.40;3.10;;;23.30;99.90;;;;;;4958641;28;20200;-95
2023/05/22 07:56:01;;;;;;;7.15;3.42;;;23.30;99.90;;;;;;4958050;29;20200;-95
2023/05/22 07:58:28;;;;;;;5.22;3.38;;;23.30;99.90;;;;;;4958063;28;20200;-96
2023/05/22 08:00:55;;;;;;;5.45;3.30;;;23.40;99.90;;;;;;4957101;28;20286;-95
2023/05/22 08:03:22;;;;;;;4.13;3.33;;;23.50;99.90;;;;;;4957050;28;20263;-95
2023/05/22 08:05:50;;;;;;;4.68;3.25;;;23.60;99.90;;;;;;4957147;29;20660;-95
2023/05/22 08:08:17;;;;;;;6.63;3.40;;;23.60;99.90;;;;;;4956659;28;20724;-95
2023/05/22 08:10:43;;;;;;;6.75;3.25;;;23.60;99.90;;;;;;4961261;29;20202;-95
2023/05/22 08:13:11;;;;;;;6.30;3.80;;;23.70;99.90;;;;;;4961471;28;20264;-95
2023/05/22 08:15:38;;;;;;;8.13;3.08;;;23.80;99.90;;;;;;4961205;29;20208;-94
2023/05/22 08:18:05;;;;;;;5.03;2.72;;;23.90;99.90;;;;;;4961206;29;20196;-95
2023/05/22 08:20:32;;;;;;;3.90;2.50;;;24.00;99.90;;;;;;4968636;29;20251;-96
2023/05/22 08:23:00;;;;;;;6.80;2.53;;;24.00;99.90;;;;;;4963769;28;20255;-96
2023/05/22 08:25:27;;;;;;;3.50;2.65;;;24.00;99.90;;;;;;4962385;28;20199;-95
2023/05/22 08:27:54;;;;;;;6.35;2.72;;;24.10;99.90;;;;;;4961634;28;20200;-95
2023/05/22 08:30:21;;;;;;;10.13;2.90;;;24.30;99.90;;;;;;4962400;28;20196;-96
2023/05/22 08:32:47;;;;;;;4.78;2.50;;;24.40;99.90;;;;;;4966658;29;20212;-96
2023/05/22 08:35:14;;;;;;;4.47;2.60;;;24.40;99.90;;;;;;4962009;28;20260;-94
2023/05/22 08:37:41;;;;;;;3.90;2.40;;;24.50;99.90;;;;;;4960327;29;20236;-94
2023/05/22 08:40:12;;;;;;;5.03;2.40;;;24.60;99.90;;;;;;4960208;29;20648;-95
2023/05/22 08:42:39;;;;;;;3.45;2.20;;;24.70;99.90;;;;;;4965514;29;20184;-95
2023/05/22 08:45:07;;;;;;;3.65;2.47;;;24.80;99.90;;;;;;4969720;29;20259;-95
2023/05/22 08:47:35;;;;;;;2.50;2.30;;;24.90;99.90;;;;;;4962811;29;20299;-95
2023/05/22 08:50:03;;;;;;;4.72;2.28;;;25.00;99.90;;;;;;4965657;29;20197;-96
2023/05/22 08:52:34;;;;;;;3.92;2.55;;;25.00;99.90;;;;;;4962142;29;20284;-96
2023/05/22 08:55:04;;;;;;;10.43;2.47;;;24.90;99.90;;;;;;4969743;28;20224;-95
2023/05/22 08:57:34;;;;;;;8.90;2.45;;;24.80;95.50;;;;;;4967591;29;20276;-96
2023/05/22 09:00:01;;;;;;;3.70;2.33;;;24.70;93.10;;;;;;4967661;28;20275;-96
2023/05/22 09:02:28;;;;;;;4.95;2.40;;;24.70;87.20;;;;;;4968161;28;20303;-94
2023/05/22 09:04:56;;;;;;;2.58;2.38;;;24.70;90.50;;;;;;4965714;28;20230;-96
2023/05/22 09:07:23;;;;;;;3.00;2.30;;;24.80;77.00;;;;;;4960645;28;20715;-96
2023/05/22 09:09:50;;;;;;;2.95;2.38;;;24.80;91.60;;;;;;4963597;28;20645;-96
2023/05/22 09:12:17;;;;;;;4.53;2.45;;;24.80;88.90;;;;;;4962644;29;20316;-95
2023/05/22 09:14:45;;;;;;;4.18;2.33;;;24.90;67.60;;;;;;4966662;29;20199;-95
2023/05/22 09:17:15;;;;;;;4.70;2.45;;;24.90;59.00;;;;;;4967894;28;20219;-95
2023/05/22 09:19:44;;;;;;;5.97;2.72;;;24.90;69.00;;;;;;4965934;28;20224;-95
2023/05/22 09:22:11;;;;;;;6.35;2.70;;;24.70;70.00;;;;;;4961599;29;20200;-96
2023/05/22 09:24:39;;;;;;;4.20;2.88;;;24.70;67.50;;;;;;4966318;29;20216;-96
2023/05/22 09:27:07;;;;;;;7.07;2.92;;;24.80;64.80;;;;;;4964021;29;20255;-96
2023/05/22 09:29:49;;;;;;;4.97;3.30;;;24.80;63.60;;;;;;4960795;29;20275;-94
2023/05/22 09:32:17;;;;;;;3.33;2.67;;;24.80;69.30;;;;;;4940080;29;20200;-94
2023/05/22 09:34:45;;;;;;;3.88;2.92;;;24.80;68.20;;;;;;4940469;29;20204;-95
2023/05/22 09:37:12;;;;;;;5.78;3.17;;;24.90;69.10;;;;;;4955524;29;20238;-95
2023/05/22 09:39:40;;;;;;;6.25;2.83;;;24.90;66.30;;;;;;4959784;29;20208;-95
2023/05/22 09:42:10;;;;;;;6.55;3.00;;;25.00;65.80;;;;;;4963294;29;20201;-95
2023/05/22 09:44:37;;;;;;;5.57;2.85;;;25.00;56.80;;;;;;4960009;29;20215;-95
2023/05/22 09:47:07;;;;;;;3.90;2.83;;;25.00;58.80;;;;;;4958693;29;20204;-94
2023/05/22 09:49:36;;;;;;;5.88;2.92;;;25.00;60.20;;;;;;4959321;29;20604;-94
2023/05/22 09:52:06;;;;;;;4.68;3.10;;;25.10;56.00;;;;;;4960322;29;20192;-96
2023/05/22 09:54:34;;;;;;;4.90;3.00;;;25.00;57.20;;;;;;4963246;28;20210;-95
2023/05/22 09:57:04;;;;;;;4.43;2.70;;;24.90;59.90;;;;;;4963901;28;20197;-95
2023/05/22 09:59:32;;;;;;;4.47;3.03;;;24.80;63.90;;;;;;4960000;29;20201;-95
2023/05/22 10:02:00;;;;;;;3.45;2.97;;;24.90;63.10;;;;;;4958749;29;20259;-96
2023/05/22 10:04:31;;;;;;;3.47;2.90;;;25.10;62.60;;;;;;4958837;29;20486;-94
2023/05/22 10:07:01;;;;;;;4.53;3.03;;;25.10;59.80;;;;;;4957826;29;20208;-95
2023/05/22 10:09:33;;;;;;;12.15;3.30;;;25.20;53.40;;;;;;4958229;29;20232;-95
2023/05/22 10:12:06;;;;;;;6.65;3.05;;;25.30;55.10;;;;;;4958554;28;20661;-95
2023/05/22 10:14:34;;;;;;;7.47;2.95;;;25.30;54.50;;;;;;4959497;29;20196;-94
2023/05/22 10:17:03;;;;;;;3.22;2.70;;;25.40;58.70;;;;;;4959023;28;20214;-95
2023/05/22 10:19:32;;;;;;;3.83;3.10;;;25.50;53.90;;;;;;4958973;29;20287;-95
2023/05/22 10:22:00;;;;;;;4.25;2.97;;;25.60;52.00;;;;;;4957064;29;20196;-95
2023/05/22 10:24:28;;;;;;;8.20;3.00;;;25.60;48.80;;;;;;4957862;29;20227;-95
2023/05/22 10:26:55;;;;;;;8.68;2.95;;;25.70;55.70;;;;;;4957842;29;20212;-95
2023/05/22 10:29:29;;;;;;;5.13;2.78;;;25.90;46.30;;;;;;4957890;29;20210;-95
2023/05/22 10:32:03;;;;;;;3.42;2.60;;;26.10;49.80;;;;;;4938136;29;20539;-94
2023/05/22 10:34:47;;;;;;;7.93;3.05;;;26.30;47.50;;;;;;4956344;29;20196;-95
2023/05/22 10:37:28;;;;;;;5.80;2.95;;;26.40;67.10;;;;;;4957868;29;20202;-95
2023/05/22 10:40:03;;;;;;;4.60;2.70;;;26.40;43.60;;;;;;4958996;29;20200;-95
2023/05/22 10:42:30;;;;;;;4.22;2.60;;;26.50;38.60;;;;;;4957705;28;20209;-94
2023/05/22 10:44:58;;;;;;;3.28;2.28;;;26.50;36.40;;;;;;4957560;29;20239;-95
2023/05/22 10:47:26;;;;;;;3.92;2.60;;;26.30;40.90;;;;;;4957540;28;20204;-94
2023/05/22 10:50:04;;;;;;;5.05;2.58;;;26.30;33.10;;;;;;4957953;28;20204;-94
2023/05/22 10:52:31;;;;;;;7.43;2.70;;;26.30;35.70;;;;;;4957110;28;20200;-95
2023/05/22 10:55:00;;;;;;;4.75;2.50;;;26.20;29.50;;;;;;4957356;29;20211;-94
2023/05/22 10:57:31;;;;;;;4.28;2.75;;;25.90;31.80;;;;;;4957145;29;20211;-94
2023/05/22 11:00:08;;;;;;;5.70;2.72;;;25.90;31.20;;;;;;4957070;29;20208;-95
2023/05/22 11:02:39;;;;;;;5.40;3.00;;;26.00;30.20;;;;;;4957456;29;20203;-95
2023/05/22 11:05:35;;;;;;;3.67;2.80;;;26.00;28.90;;;;;;4958188;29;20227;-95
2023/05/22 11:08:36;;;;;;;3.97;2.95;;;26.10;29.30;;;;;;4962484;28;20302;-95
2023/05/22 11:11:12;;;;;;;3.20;2.75;;;26.30;28.20;;;;;;4976860;28;20215;-94
2023/05/22 11:13:40;;;;;;;4.20;2.75;;;26.50;26.40;;;;;;4958468;28;20716;-96
2023/05/22 11:16:09;;;;;;;8.23;2.80;;;26.60;25.60;;;;;;4968331;28;20254;-95
2023/05/22 11:18:36;;;;;;;6.18;2.78;;;26.70;28.30;;;;;;4967377;28;20200;-95
2023/05/22 11:21:06;;;;;;;2.88;2.58;;;26.70;24.40;;;;;;4956691;29;20204;-95
2023/05/22 11:23:37;;;;;;;4.68;2.53;;;26.60;24.40;;;;;;4975266;28;20762;-94
2023/05/22 11:26:21;;;;;;;6.68;2.60;;;26.80;24.90;;;;;;4961530;28;20231;-95
2023/05/22 11:28:52;;;;;;;6.22;2.63;;;26.90;24.90;;;;;;4962403;28;20203;-94
2023/05/22 11:31:21;;;;;;;4.63;2.70;;;27.00;24.30;;;;;;4963085;28;20200;-94
2023/05/22 11:33:48;;;;;;;8.10;3.00;;;27.10;46.00;;;;;;4956988;29;20214;-94
2023/05/22 11:36:17;;;;;;;6.35;2.63;;;27.30;21.40;;;;;;4960775;28;20196;-95
2023/05/22 11:38:44;;;;;;;3.55;2.38;;;27.40;23.60;;;;;;4976340;28;20211;-94
2023/05/22 11:41:11;;;;;;;4.15;2.67;;;27.50;19.20;;;;;;4975645;28;20210;-95
2023/05/22 11:43:38;;;;;;;6.03;2.70;;;27.50;20.70;;;;;;4954655;28;20204;-94
2023/05/22 11:46:07;;;;;;;4.65;2.40;;;27.60;17.70;;;;;;4956333;29;20226;-94
2023/05/22 11:48:35;;;;;;;5.35;2.50;;;27.60;15.40;;;;;;4956263;29;20204;-95
2023/05/22 11:51:02;;;;;;;6.45;2.65;;;27.60;30.00;;;;;;4956357;29;20657;-95
2023/05/22 11:53:31;;;;;;;13.30;2.80;;;27.60;12.30;;;;;;4956278;29;20223;-94
2023/05/22 11:56:02;;;;;;;5.22;2.60;;;27.60;14.60;;;;;;4969991;28;20208;-94
2023/05/22 11:58:29;;;;;;;3.78;2.58;;;27.60;13.80;;;;;;4957823;28;20219;-94
2023/05/22 12:01:00;;;;;;;4.20;2.40;;;27.60;13.20;;;;;;4956505;28;20196;-95
2023/05/22 12:03:27;;;;;;;5.07;2.80;;;27.50;10.40;;;;;;4958418;28;20214;-94
2023/05/22 12:05:55;;;;;;;3.58;2.50;;;27.50;9.00;;;;;;4971854;28;20220;-95
2023/05/22 12:08:22;;;;;;;7.18;2.70;;;27.60;9.40;;;;;;4955985;28;20597;-94
2023/05/22 12:10:52;;;;;;;3.00;2.30;;;27.70;6.80;;;;;;4956328;29;20200;-95
2023/05/22 12:13:23;;;;;;;5.30;2.80;;;27.90;6.50;;;;;;4956195;28;20203;-96
2023/05/22 12:15:50;;;;;;;4.15;2.90;;;28.20;6.50;;;;;;4956267;29;20200;-95
2023/05/22 12:18:18;;;;;;;2.85;2.55;;;28.50;3.90;;;;;;4956174;29;20208;-95
2023/05/22 12:20:45;;;;;;;4.30;2.63;;;28.60;2.60;;;;;;4956592;29;20196;-95
2023/05/22 12:23:12;;;;;;;5.55;2.40;;;28.60;1.00;;;;;;4956103;29;20207;-94
2023/05/22 12:25:39;;;;;;;5.97;2.42;;;28.50;1.00;;;;;;4955713;28;20677;-95
2023/05/22 12:28:07;;;;;;;7.07;2.70;;;28.30;1.00;;;;;;4955886;28;20566;-95
2023/05/22 12:30:41;;;;;;;24.70;3.40;;;28.30;1.00;;;;;;4955967;28;20204;-95
2023/05/22 12:33:13;;;;;;;4.38;2.70;;;28.30;1.00;;;;;;4956142;29;20192;-94
2023/05/22 12:35:41;;;;;;;5.05;2.50;;;28.30;1.00;;;;;;4956066;29;20255;-95
2023/05/22 12:38:08;;;;;;;7.32;2.70;;;28.20;1.00;;;;;;4956263;29;20206;-95
2023/05/22 12:40:35;;;;;;;2.92;2.42;;;28.20;1.00;;;;;;4956351;29;20212;-95
2023/05/22 12:43:02;;;;;;;14.80;3.22;;;28.20;1.00;;;;;;4955965;29;20212;-95
2023/05/22 12:45:30;;;;;;;7.13;2.83;;;28.30;1.00;;;;;;4955618;29;20220;-94
2023/05/22 12:47:57;;;;;;;14.98;3.10;;;28.40;1.00;;;;;;4956225;28;20216;-95
2023/05/22 12:50:24;;;;;;;5.55;2.55;;;28.50;1.00;;;;;;4956252;28;20212;-94
2023/05/22 12:52:50;;;;;;;4.13;2.67;;;28.50;1.00;;;;;;4956289;28;20215;-94
2023/05/22 12:55:17;;;;;;;2.92;2.58;;;28.50;1.00;;;;;;4957751;28;20200;-94
2023/05/22 12:57:44;;;;;;;3.58;2.60;;;28.40;1.00;;;;;;4959338;28;20215;-94